Time;durP1;ratioP1;P1;durP2;ratioP2;P2;SDS_P1;SDS_P2;PMS_P1;PMS_P2;Temp;Humidity;BMP_temperature;BMP_pressure;BME280_temperature;BME280_humidity;BME280_pressure;Samples;Min_cycle;Max_cycle;Signal;HPM_P1;HPM_P2
2022/09/05 00:02:01;;;;;;;3.85;2.33;;;;;;;17.02;97.20;96221.22;5009264;28;20042;-54
2022/09/05 00:04:45;;;;;;;4.97;2.30;;;;;;;17.07;96.65;96225.19;5010674;28;20038;-56
2022/09/05 00:07:20;;;;;;;6.47;2.33;;;;;;;17.08;96.02;96227.66;5006484;28;20099;-57
2022/09/05 00:09:59;;;;;;;3.08;2.70;;;;;;;17.06;96.40;96227.00;5003496;28;20120;-56
2022/09/05 00:12:27;;;;;;;3.33;2.20;;;;;;;17.07;96.82;96228.66;5007296;28;20053;-56
2022/09/05 00:15:22;;;;;;;2.92;2.45;;;;;;;17.08;96.27;96227.66;5011289;28;20075;-56
2022/09/05 00:17:59;;;;;;;10.60;2.67;;;;;;;17.12;96.09;96228.16;4987753;28;20166;-56
2022/09/05 00:21:02;;;;;;;8.30;2.65;;;;;;;17.11;96.08;96227.31;5004658;28;20834;-53
2022/09/05 00:23:39;;;;;;;6.75;2.58;;;;;;;17.10;95.70;96223.00;5003818;28;20109;-56
2022/09/05 00:26:34;;;;;;;3.08;2.25;;;;;;;17.03;98.21;96214.06;5010503;28;20072;-53
2022/09/05 00:29:11;;;;;;;5.57;2.08;;;;;;;17.01;97.08;96210.75;5003266;28;20584;-57
2022/09/05 00:32:02;;;;;;;5.50;2.60;;;;;;;17.04;96.97;96218.38;5003117;28;20042;-56
2022/09/05 00:34:52;;;;;;;5.13;2.38;;;;;;;17.02;97.36;96215.91;5009537;28;20025;-54
2022/09/05 00:37:37;;;;;;;6.47;2.50;;;;;;;17.00;97.78;96206.41;5010707;28;20691;-55
2022/09/05 00:40:34;;;;;;;3.03;2.10;;;;;;;16.98;96.64;96208.38;5005928;28;20532;-56
2022/09/05 00:43:11;;;;;;;5.90;2.60;;;;;;;16.97;97.85;96214.72;5007084;28;20041;-57
2022/09/05 00:45:51;;;;;;;6.30;2.50;;;;;;;16.92;97.85;96203.75;5009040;28;20109;-54
2022/09/05 00:48:45;;;;;;;5.43;2.30;;;;;;;16.90;97.99;96203.91;5008304;28;20042;-56
2022/09/05 00:51:20;;;;;;;4.38;2.30;;;;;;;16.89;98.77;96208.38;5008032;28;20038;-57
2022/09/05 00:54:07;;;;;;;7.65;2.72;;;;;;;16.84;99.78;96207.25;5004810;28;20511;-55
2022/09/05 00:56:54;;;;;;;3.08;2.30;;;;;;;16.74;100.00;96210.91;5004050;28;20037;-56
2022/09/05 00:59:22;;;;;;;3.80;2.70;;;;;;;16.75;98.92;96214.41;5009547;28;20034;-56
2022/09/05 01:01:58;;;;;;;4.93;2.30;;;;;;;16.75;98.90;96209.91;5003963;28;20044;-57
2022/09/05 01:04:31;;;;;;;;;;;;;;;16.75;100.00;96209.91;5008686;28;20033;-55
2022/09/05 01:07:33;;;;;;;6.13;2.67;;;;;;;16.75;100.00;96203.78;5006404;28;19917;-55
2022/09/05 01:10:18;;;;;;;7.63;2.70;;;;;;;16.74;100.00;96205.59;5004129;28;20405;-57
2022/09/05 01:12:51;;;;;;;4.32;2.85;;;;;;;16.75;100.00;96206.44;5002638;28;20476;-55
2022/09/05 01:15:50;;;;;;;3.92;2.63;;;;;;;16.69;100.00;96201.78;5006004;28;20026;-56
2022/09/05 01:18:23;;;;;;;6.75;2.70;;;;;;;16.72;99.71;96210.25;4969563;28;20053;-56
2022/09/05 01:21:14;;;;;;;5.90;2.67;;;;;;;16.70;100.00;96211.44;5003405;28;20501;-57
2022/09/05 01:24:02;;;;;;;3.65;2.47;;;;;;;16.70;100.00;96214.91;5004882;28;20036;-56
2022/09/05 01:27:03;;;;;;;8.55;2.95;;;;;;;16.68;100.00;96210.75;5004160;28;20068;-55
2022/09/05 01:29:31;;;;;;;5.22;2.70;;;;;;;16.67;100.00;96211.75;4954701;28;20043;-55
2022/09/05 01:32:24;;;;;;;7.13;2.50;;;;;;;16.67;100.00;96217.91;5005533;28;20045;-55
2022/09/05 01:35:26;;;;;;;5.75;2.80;;;;;;;16.67;100.00;96217.91;5004511;28;20029;-54
2022/09/05 01:38:04;;;;;;;11.65;2.55;;;;;;;16.65;99.69;96214.59;5007266;28;20034;-57
2022/09/05 01:40:52;;;;;;;5.55;3.00;;;;;;;16.63;100.00;96216.59;5004129;28;20034;-56
2022/09/05 01:43:55;;;;;;;4.15;2.80;;;;;;;16.58;100.00;96218.91;5007865;28;20033;-57
2022/09/05 01:46:33;;;;;;;7.32;2.80;;;;;;;16.58;100.00;96214.41;5006993;28;20038;-56
2022/09/05 01:49:23;;;;;;;5.78;2.90;;;;;;;16.55;100.00;96213.91;5007974;28;20037;-53
2022/09/05 01:52:25;;;;;;;5.82;2.90;;;;;;;16.54;100.00;96213.09;5006938;28;20034;-57
2022/09/05 01:55:28;;;;;;;8.05;2.70;;;;;;;16.53;100.00;96213.25;5003729;28;20355;-54
2022/09/05 01:58:18;;;;;;;4.90;2.63;;;;;;;16.47;100.00;96214.75;5006935;28;20545;-55
2022/09/05 02:00:56;;;;;;;3.13;2.63;;;;;;;16.43;100.00;96208.09;5006938;28;20068;-55
2022/09/05 02:03:34;;;;;;;2.50;2.28;;;;;;;16.41;100.00;96213.59;4991615;28;20038;-53
2022/09/05 02:06:32;;;;;;;2.75;2.45;;;;;;;16.41;100.00;96218.06;5008541;28;20413;-55
2022/09/05 02:09:16;;;;;;;3.50;2.60;;;;;;;16.43;100.00;96218.72;4918974;28;20073;-57
2022/09/05 02:12:13;;;;;;;7.30;3.08;;;;;;;16.41;100.00;96208.28;5000503;28;20088;-55
2022/09/05 02:14:59;;;;;;;3.08;2.50;;;;;;;16.42;100.00;96219.72;4978364;28;20062;-57
2022/09/05 02:17:47;;;;;;;2.80;2.38;;;;;;;16.34;100.00;96220.53;5004948;28;20448;-52
2022/09/05 02:20:42;;;;;;;5.47;2.65;;;;;;;16.26;100.00;96210.78;5005482;28;20037;-54
2022/09/05 02:23:20;;;;;;;5.88;2.97;;;;;;;16.27;100.00;96215.09;5003492;28;20493;-56
2022/09/05 02:25:52;;;;;;;5.47;2.88;;;;;;;16.18;100.00;96213.41;5002273;28;20038;-52
2022/09/05 02:28:40;;;;;;;5.38;3.05;;;;;;;16.15;100.00;96214.56;5000370;28;20117;-53
2022/09/05 02:31:23;;;;;;;3.45;2.83;;;;;;;16.12;100.00;96219.38;5010652;28;20133;-53
2022/09/05 02:33:58;;;;;;;7.20;2.95;;;;;;;16.11;100.00;96212.41;5007745;28;20053;-56
2022/09/05 02:36:34;;;;;;;6.03;3.08;;;;;;;16.10;100.00;96214.22;5007906;28;20375;-55
2022/09/05 02:39:16;;;;;;;2.92;2.72;;;;;;;16.08;100.00;96210.09;5008013;28;20038;-54
2022/09/05 02:41:55;;;;;;;4.78;2.85;;;;;;;16.07;100.00;96211.88;5011647;28;20052;-57
2022/09/05 02:44:31;;;;;;;4.38;2.85;;;;;;;16.03;100.00;96211.41;5007183;28;20038;-56
2022/09/05 02:47:39;;;;;;;5.25;2.63;;;;;;;16.04;100.00;96212.22;5005512;28;20037;-56
2022/09/05 02:50:40;;;;;;;7.80;2.70;;;;;;;15.98;100.00;96207.56;5002757;28;20041;-55
2022/09/05 02:53:10;;;;;;;4.07;2.63;;;;;;;15.95;100.00;96210.56;4965204;28;20098;-56
2022/09/05 02:56:02;;;;;;;7.63;2.65;;;;;;;15.87;100.00;96219.31;5002651;28;20074;-54
2022/09/05 02:58:51;;;;;;;5.95;2.92;;;;;;;15.76;100.00;96205.31;5001657;28;20053;-55
2022/09/05 03:01:42;;;;;;;3.03;2.80;;;;;;;15.75;100.00;96210.81;5010669;28;20583;-56
2022/09/05 03:04:28;;;;;;;6.70;2.60;;;;;;;15.76;100.00;96207.97;5011407;28;20045;-57
2022/09/05 03:07:04;;;;;;;3.10;2.75;;;;;;;15.80;100.00;96215.63;5009079;28;20068;-57
2022/09/05 03:09:51;;;;;;;11.32;6.40;;;;;;;15.78;100.00;96217.59;5010610;28;20220;-56
2022/09/05 03:12:28;;;;;;;6.47;4.13;;;;;;;15.80;100.00;96213.81;5008801;28;20092;-56
2022/09/05 03:15:14;;;;;;;8.80;3.38;;;;;;;15.80;100.00;96224.41;5010805;28;20060;-55
2022/09/05 03:18:18;;;;;;;6.05;2.88;;;;;;;15.75;100.00;96224.09;5011705;28;20465;-55
2022/09/05 03:21:12;;;;;;;6.57;2.80;;;;;;;15.69;100.00;96222.06;5007907;28;20025;-56
2022/09/05 03:24:09;;;;;;;5.28;3.03;;;;;;;15.68;100.00;96231.00;5006802;28;20071;-55
2022/09/05 03:27:08;;;;;;;5.55;2.85;;;;;;;15.69;100.00;96224.69;4989868;28;20528;-54
2022/09/05 03:30:11;;;;;;;3.90;2.88;;;;;;;15.69;100.00;96230.00;5015215;28;20032;-55
2022/09/05 03:33:06;;;;;;;2.92;2.50;;;;;;;15.65;100.00;96228.69;5010433;28;20525;-57
2022/09/05 03:35:50;;;;;;;7.90;3.27;;;;;;;15.58;100.00;96231.97;5010421;28;20034;-56
2022/09/05 03:38:27;;;;;;;8.63;3.03;;;;;;;15.53;100.00;96226.31;5007904;28;20276;-55
2022/09/05 03:41:04;;;;;;;4.93;3.15;;;;;;;15.53;100.00;96220.19;5010311;28;20125;-55
2022/09/05 03:44:04;;;;;;;3.50;3.20;;;;;;;15.53;100.00;96230.78;5008935;28;20057;-56
2022/09/05 03:47:07;;;;;;;4.50;4.00;;;;;;;15.52;100.00;96224.66;5008859;28;20101;-57
2022/09/05 03:49:49;;;;;;;5.03;3.28;;;;;;;15.46;100.00;96227.94;5010270;28;20521;-56
2022/09/05 03:52:23;;;;;;;4.57;2.90;;;;;;;15.44;100.00;96222.81;5013698;28;20030;-55
2022/09/05 03:55:07;;;;;;;6.43;3.50;;;;;;;15.46;100.00;96220.81;5010925;28;20558;-55
2022/09/05 03:57:41;;;;;;;6.93;2.85;;;;;;;15.42;100.00;96221.28;5008539;28;20055;-57
2022/09/05 04:00:26;;;;;;;6.20;3.07;;;;;;;15.38;100.00;96223.44;5009766;28;20057;-55
2022/09/05 04:03:05;;;;;;;5.05;3.03;;;;;;;15.36;100.00;96227.25;5009290;28;20061;-54
2022/09/05 04:05:41;;;;;;;5.78;3.30;;;;;;;15.36;100.00;96229.91;5010988;28;20021;-55
2022/09/05 04:08:35;;;;;;;3.10;2.80;;;;;;;15.39;100.00;96229.56;5009512;28;20045;-54
2022/09/05 04:11:07;;;;;;;3.83;2.75;;;;;;;15.31;100.00;96238.31;5004115;28;20643;-55
2022/09/05 04:13:32;;;;;;;3.47;3.17;;;;;;;15.31;100.00;96219.75;5008219;28;20022;-52
2022/09/05 04:16:11;;;;;;;3.42;3.13;;;;;;;15.27;100.00;96223.72;5011608;28;20516;-55
2022/09/05 04:18:41;;;;;;;3.50;3.20;;;;;;;15.27;100.00;96226.38;5006456;28;20429;-55
2022/09/05 04:21:23;;;;;;;5.25;2.90;;;;;;;15.25;100.00;96231.84;5007757;28;20041;-56
2022/09/05 04:24:06;;;;;;;7.55;3.10;;;;;;;15.23;100.00;96230.34;5008635;28;20523;-56
2022/09/05 04:26:46;;;;;;;4.40;3.17;;;;;;;15.24;100.00;96230.16;5006107;28;20505;-55
2022/09/05 04:29:18;;;;;;;4.72;3.88;;;;;;;15.25;100.00;96228.34;5006282;28;20149;-55
2022/09/05 04:31:56;;;;;;;5.80;4.50;;;;;;;15.25;100.00;96233.66;5008525;28;20080;-55
2022/09/05 04:34:50;;;;;;;6.25;3.58;;;;;;;15.26;100.00;96240.63;5010316;28;20018;-54
2022/09/05 04:37:35;;;;;;;4.68;3.30;;;;;;;15.33;100.00;96236.34;5008422;28;20579;-56
2022/09/05 04:40:54;;;;;;;3.40;2.70;;;;;;;15.32;100.00;96242.63;5006017;28;20077;-56
2022/09/05 04:43:48;;;;;;;3.20;2.90;;;;;;;15.27;100.00;96245.78;4947744;28;20162;-57
2022/09/05 04:46:20;;;;;;;4.35;3.55;;;;;;;15.22;100.00;96257.84;4999961;28;20077;-56
2022/09/05 04:49:13;;;;;;;4.13;2.85;;;;;;;15.21;100.00;96258.84;5009067;28;20029;-57
2022/09/05 04:52:08;;;;;;;4.35;3.22;;;;;;;15.18;100.00;96262.63;5012120;28;20606;-55
2022/09/05 04:54:58;;;;;;;4.82;3.38;;;;;;;15.18;100.00;96260.81;5006351;28;20075;-54
2022/09/05 04:57:49;;;;;;;6.53;3.40;;;;;;;15.17;100.00;96261.81;5014725;28;20119;-55
2022/09/05 05:01:00;;;;;;;6.50;3.15;;;;;;;15.16;100.00;96260.16;4968026;28;20034;-57
2022/09/05 05:03:32;;;;;;;3.88;3.35;;;;;;;15.15;100.00;96262.94;4988349;28;20398;-56
2022/09/05 05:06:01;;;;;;;3.33;3.03;;;;;;;15.13;100.00;96264.91;5010316;28;20432;-53
2022/09/05 05:08:59;;;;;;;3.58;3.28;;;;;;;15.13;100.00;96265.72;5006650;28;20100;-56
2022/09/05 05:11:55;;;;;;;5.30;3.30;;;;;;;15.18;100.00;96266.13;4967210;28;20046;-52
2022/09/05 05:14:23;;;;;;;;;;;;;;;15.20;100.00;96268.59;5006134;28;20036;-55
2022/09/05 05:16:58;;;;;;;7.28;3.80;;;;;;;15.22;100.00;96274.56;5009232;28;19924;-56
2022/09/05 05:19:38;;;;;;;;;;;;;;;15.24;100.00;96279.75;5010358;28;20069;-55
2022/09/05 05:22:04;;;;;;;4.28;3.70;;;;;;;15.22;100.00;96287.03;5004783;28;20357;-54
2022/09/05 05:24:34;;;;;;;6.85;3.25;;;;;;;15.20;100.00;96286.34;5003426;28;20038;-56
2022/09/05 05:27:15;;;;;;;4.22;3.10;;;;;;;15.16;100.00;96278.72;4998721;28;20072;-56
2022/09/05 05:29:47;;;;;;;5.68;3.45;;;;;;;15.19;100.00;96290.81;5005478;28;20041;-56
2022/09/05 05:32:29;;;;;;;4.78;4.05;;;;;;;15.20;100.00;96289.81;5004876;28;20036;-53
2022/09/05 05:35:06;;;;;;;5.10;3.03;;;;;;;15.22;100.00;96293.13;5005129;28;20030;-57
2022/09/05 05:37:41;;;;;;;4.43;3.42;;;;;;;15.25;100.00;96297.31;5007532;28;20041;-56
2022/09/05 05:40:18;;;;;;;4.93;3.83;;;;;;;15.27;100.00;96295.34;5005511;28;20022;-56
2022/09/05 05:42:45;;;;;;;7.80;3.55;;;;;;;15.26;100.00;96293.66;5001090;28;20053;-56
2022/09/05 05:45:26;;;;;;;8.07;4.35;;;;;;;15.28;100.00;96307.59;5003708;28;20494;-55
2022/09/05 05:48:02;;;;;;;6.97;3.83;;;;;;;15.29;100.00;96296.00;5003880;28;20112;-57
2022/09/05 05:50:48;;;;;;;8.23;3.65;;;;;;;15.28;100.00;96297.84;5005947;28;20934;-56
2022/09/05 05:53:32;;;;;;;6.07;3.33;;;;;;;15.27;100.00;96298.00;5007350;28;20034;-56
2022/09/05 05:56:35;;;;;;;5.20;3.20;;;;;;;15.29;100.00;96298.66;5005616;28;20101;-55
2022/09/05 05:59:20;;;;;;;5.40;3.58;;;;;;;15.30;100.00;96303.81;5000310;28;20504;-54
2022/09/05 06:02:10;;;;;;;3.85;3.17;;;;;;;15.33;100.00;96311.47;5002518;28;20091;-57
2022/09/05 06:05:05;;;;;;;5.20;3.90;;;;;;;15.42;100.00;96307.03;5002808;28;20041;-55
2022/09/05 06:07:58;;;;;;;3.85;3.47;;;;;;;15.46;100.00;96315.50;5007004;28;20436;-54
2022/09/05 06:10:26;;;;;;;6.25;3.88;;;;;;;15.51;100.00;96313.22;5005599;28;20156;-56
2022/09/05 06:13:27;;;;;;;7.38;3.25;;;;;;;15.52;100.00;96317.53;5007676;28;20112;-55
2022/09/05 06:16:11;;;;;;;5.15;3.63;;;;;;;15.50;100.00;96314.22;5007562;28;20025;-56
2022/09/05 06:19:11;;;;;;;4.43;3.50;;;;;;;15.47;100.00;96317.16;5002511;28;20029;-56
2022/09/05 06:21:42;;;;;;;7.78;3.80;;;;;;;15.49;100.00;96312.56;4981942;28;20073;-57
2022/09/05 06:24:26;;;;;;;4.30;3.63;;;;;;;15.52;100.00;96311.38;5004653;28;20038;-57
2022/09/05 06:27:28;;;;;;;8.68;5.28;;;;;;;15.56;100.00;96312.72;5005830;28;20033;-54
2022/09/05 06:30:12;;;;;;;6.20;4.18;;;;;;;15.63;100.00;96310.28;5011689;28;20429;-56
2022/09/05 06:33:09;;;;;;;5.35;3.90;;;;;;;15.66;100.00;96300.19;5002855;28;20527;-57
2022/09/05 06:36:13;;;;;;;6.35;4.18;;;;;;;15.69;100.00;96299.88;5004993;28;20034;-58
2022/09/05 06:39:16;;;;;;;10.32;5.53;;;;;;;15.75;100.00;96299.22;5007992;28;20097;-52
2022/09/05 06:41:51;;;;;;;6.85;4.88;;;;;;;15.80;100.00;96301.41;5002189;28;20030;-57
2022/09/05 06:44:25;;;;;;;7.05;4.82;;;;;;;15.82;100.00;96314.53;5009803;28;20080;-57
2022/09/05 06:46:54;;;;;;;4.60;4.13;;;;;;;15.94;100.00;96307.97;5010723;28;20061;-57
2022/09/05 06:49:24;;;;;;;6.68;4.60;;;;;;;16.42;100.00;96302.94;5005140;28;20046;-56
2022/09/05 06:52:11;;;;;;;5.93;4.53;;;;;;;17.06;100.00;96306.00;4999992;28;20097;-57
2022/09/05 06:54:58;;;;;;;7.35;4.25;;;;;;;17.58;100.00;96302.88;4990725;28;20049;-58
2022/09/05 06:57:33;;;;;;;3.90;3.53;;;;;;;18.25;96.50;96311.47;5006536;28;20045;-57
2022/09/05 07:00:33;;;;;;;9.63;3.22;;;;;;;18.90;91.13;96304.03;5008763;28;20080;-58
2022/09/05 07:03:10;;;;;;;3.45;3.00;;;;;;;19.32;90.28;96309.00;4928180;29;20031;-55
2022/09/05 07:05:53;;;;;;;5.10;3.17;;;;;;;19.64;89.50;96314.19;4981914;28;20677;-58
2022/09/05 07:08:38;;;;;;;5.43;3.13;;;;;;;20.08;86.15;96302.66;5005757;28;20453;-56
2022/09/05 07:11:09;;;;;;;4.88;2.85;;;;;;;20.44;83.09;96304.53;5007721;28;20176;-53
2022/09/05 07:13:46;;;;;;;3.78;2.80;;;;;;;20.60;79.17;96307.97;5005819;28;20030;-57
2022/09/05 07:16:26;;;;;;;2.83;2.53;;;;;;;20.96;76.55;96300.94;5007731;28;20036;-58
2022/09/05 07:19:13;;;;;;;3.35;2.58;;;;;;;21.41;73.98;96306.00;5007044;28;20545;-57
2022/09/05 07:21:58;;;;;;;3.72;2.60;;;;;;;21.47;73.39;96314.09;5008163;28;20030;-51
2022/09/05 07:24:29;;;;;;;6.93;2.97;;;;;;;21.77;70.81;96310.38;5008034;28;20076;-50
2022/09/05 07:26:58;;;;;;;2.20;2.05;;;;;;;21.78;67.90;96311.22;4989326;28;20049;-53
2022/09/05 07:29:39;;;;;;;2.45;2.00;;;;;;;21.95;69.01;96304.47;5009111;28;20670;-50
2022/09/05 07:32:07;;;;;;;9.45;2.63;;;;;;;21.93;69.89;96301.19;5006478;28;20026;-51
2022/09/05 07:34:35;;;;;;;7.68;2.70;;;;;;;21.71;71.34;96314.66;5002798;28;20427;-52
2022/09/05 07:37:13;;;;;;;6.20;2.45;;;;;;;21.74;69.71;96314.28;5008297;28;20026;-55
2022/09/05 07:39:43;;;;;;;2.60;2.40;;;;;;;21.66;71.21;96316.28;5004467;28;20061;-54
2022/09/05 07:42:16;;;;;;;5.32;2.67;;;;;;;21.96;68.49;96305.31;5007015;28;20123;-53
2022/09/05 07:44:56;;;;;;;6.97;2.20;;;;;;;21.91;67.90;96313.16;5009146;28;20025;-51
2022/09/05 07:47:47;;;;;;;3.78;2.30;;;;;;;21.90;68.61;96312.31;5001676;28;20037;-51
2022/09/05 07:50:14;;;;;;;4.72;2.25;;;;;;;21.72;68.73;96304.78;4998107;28;20064;-55
2022/09/05 07:52:43;;;;;;;3.53;2.25;;;;;;;21.77;70.47;96309.53;5001204;28;20162;-53
2022/09/05 07:55:33;;;;;;;2.85;2.28;;;;;;;21.92;69.91;96309.44;5000127;28;20032;-50
2022/09/05 07:58:06;;;;;;;3.30;2.42;;;;;;;22.11;65.84;96303.34;5005961;28;20034;-52
2022/09/05 08:00:33;;;;;;;5.05;2.15;;;;;;;22.24;67.87;96307.91;5002459;28;20026;-54
2022/09/05 08:03:06;;;;;;;2.75;2.20;;;;;;;;;;4996860;28;20034;-54
2022/09/05 08:05:41;;;;;;;3.95;2.10;;;;;;;22.63;64.58;96302.06;5006765;28;20033;-56
2022/09/05 08:08:12;;;;;;;6.40;2.30;;;;;;;22.98;64.88;96294.66;5001750;28;20579;-53
2022/09/05 08:10:54;;;;;;;4.72;2.20;;;;;;;23.27;61.41;96305.22;5001067;28;21010;-56
2022/09/05 08:13:41;;;;;;;3.80;2.22;;;;;;;23.78;59.81;96301.00;5007290;28;20026;-50
2022/09/05 08:16:10;;;;;;;2.65;1.80;;;;;;;23.94;60.34;96299.72;5004147;28;20557;-56
2022/09/05 08:18:45;;;;;;;3.72;1.92;;;;;;;23.83;57.68;96300.38;5005713;28;20479;-54
2022/09/05 08:21:22;;;;;;;2.30;2.00;;;;;;;23.65;60.43;96298.34;5010465;28;20021;-51
2022/09/05 08:24:02;;;;;;;5.35;1.77;;;;;;;23.39;58.38;96298.19;5003375;28;20064;-55
2022/09/05 08:26:31;;;;;;;3.00;1.90;;;;;;;23.22;61.16;96295.09;5005416;28;20638;-55
2022/09/05 08:29:29;;;;;;;6.72;2.28;;;;;;;23.40;60.79;96294.47;5004602;28;20029;-54
2022/09/05 08:32:09;;;;;;;4.43;2.50;;;;;;;23.88;59.29;96297.88;5005073;28;20113;-55
2022/09/05 08:34:50;;;;;;;4.57;2.20;;;;;;;24.44;56.74;96293.75;5008585;28;20125;-56
2022/09/05 08:37:25;;;;;;;2.85;1.92;;;;;;;24.55;55.12;96289.53;5004788;28;20064;-55
2022/09/05 08:39:53;;;;;;;8.63;2.45;;;;;;;24.39;57.04;96287.34;5011230;28;20029;-56
2022/09/05 08:42:21;;;;;;;2.33;2.10;;;;;;;24.20;56.46;96275.66;5003260;28;20053;-56
2022/09/05 08:44:58;;;;;;;8.73;2.17;;;;;;;24.28;57.53;96278.94;5005538;28;20038;-53
2022/09/05 08:47:31;;;;;;;2.83;2.40;;;;;;;23.98;57.90;96271.38;5006704;28;20404;-56
2022/09/05 08:50:11;;;;;;;2.30;2.10;;;;;;;24.07;57.92;96265.78;5005357;28;20084;-54
2022/09/05 08:53:12;;;;;;;4.45;2.40;;;;;;;24.16;57.46;96269.88;5007057;28;20033;-51
2022/09/05 08:55:38;;;;;;;2.97;2.40;;;;;;;24.31;57.12;96270.44;5012030;28;20026;-56
2022/09/05 08:58:41;;;;;;;4.72;2.10;;;;;;;24.67;55.59;96260.06;5003742;28;20406;-55
2022/09/05 09:01:20;;;;;;;4.93;2.38;;;;;;;24.83;55.36;96268.69;4991870;28;20160;-56
2022/09/05 09:04:23;;;;;;;3.38;2.20;;;;;;;24.96;54.83;96260.50;5006539;28;20064;-55
2022/09/05 09:06:52;;;;;;;3.10;2.28;;;;;;;24.72;54.50;96264.81;5004562;28;20029;-51
2022/09/05 09:09:36;;;;;;;2.97;1.92;;;;;;;24.59;56.06;96258.47;5010131;28;20029;-55
2022/09/05 09:12:39;;;;;;;2.30;1.95;;;;;;;24.55;53.64;96257.25;5005936;28;20030;-55
2022/09/05 09:15:23;;;;;;;2.63;2.00;;;;;;;24.50;56.05;96254.38;4992277;28;20029;-55
2022/09/05 09:17:51;;;;;;;2.10;1.90;;;;;;;24.23;57.13;96257.25;5001549;28;20027;-54
2022/09/05 09:20:52;;;;;;;3.35;2.20;;;;;;;24.26;56.16;96251.44;5007128;28;20025;-56
2022/09/05 09:23:47;;;;;;;2.10;1.98;;;;;;;24.11;56.83;96251.72;4991943;28;20042;-55
2022/09/05 09:26:15;;;;;;;4.93;2.13;;;;;;;24.41;56.69;96245.75;4964987;28;20044;-56
2022/09/05 09:28:47;;;;;;;3.83;2.13;;;;;;;24.61;56.63;96240.22;5004314;28;20029;-54
2022/09/05 09:31:39;;;;;;;3.40;2.00;;;;;;;24.55;54.91;96241.09;5003463;28;20108;-55
2022/09/05 09:34:24;;;;;;;3.92;2.05;;;;;;;24.43;56.29;96242.84;5000693;28;20041;-54
2022/09/05 09:36:55;;;;;;;2.38;2.00;;;;;;;24.58;54.77;96239.84;5006441;28;20042;-55
2022/09/05 09:39:23;;;;;;;7.53;2.03;;;;;;;24.86;55.38;96234.06;5006586;28;20032;-55
2022/09/05 09:41:54;;;;;;;2.70;2.20;;;;;;;24.89;53.95;96227.41;5006439;28;20030;-54
2022/09/05 09:44:40;;;;;;;2.97;1.88;;;;;;;24.98;52.65;96228.81;5000900;28;20030;-55
2022/09/05 09:47:13;;;;;;;3.95;2.10;;;;;;;24.75;53.90;96226.72;5006774;28;20138;-55
2022/09/05 09:49:51;;;;;;;2.63;2.10;;;;;;;25.07;53.99;96226.63;5006651;28;20061;-54
2022/09/05 09:52:41;;;;;;;4.45;2.08;;;;;;;25.11;54.21;96224.31;5006137;28;20030;-54
2022/09/05 09:55:27;;;;;;;2.78;2.50;;;;;;;24.93;53.97;96219.75;4999110;28;20117;-54
2022/09/05 09:58:02;;;;;;;2.08;1.90;;;;;;;24.92;53.80;96216.22;5006514;28;20053;-53
2022/09/05 10:00:42;;;;;;;2.75;2.25;;;;;;;24.87;54.39;96214.19;5004036;28;20092;-56
2022/09/05 10:03:07;;;;;;;2.40;2.20;;;;;;;25.17;54.54;96213.50;5005137;28;20463;-54
2022/09/05 10:05:55;;;;;;;5.40;2.53;;;;;;;25.15;57.86;96206.69;4997495;28;20110;-55
2022/09/05 10:08:56;;;;;;;3.92;2.10;;;;;;;25.17;52.02;96202.72;4998962;28;20300;-52
2022/09/05 10:11:59;;;;;;;3.97;1.98;;;;;;;24.77;51.15;96208.47;4964787;28;20172;-55
2022/09/05 10:15:01;;;;;;;4.97;2.28;;;;;;;24.61;52.94;96204.44;5005802;28;20037;-54
2022/09/05 10:18:09;;;;;;;4.03;2.30;;;;;;;25.06;52.47;96205.31;5007307;28;20029;-53
2022/09/05 10:21:03;;;;;;;7.78;2.13;;;;;;;24.88;52.84;96198.84;4960625;28;20579;-54
2022/09/05 10:23:37;;;;;;;2.87;2.17;;;;;;;25.33;52.23;96187.03;5005154;28;20133;-58
2022/09/05 10:26:17;;;;;;;3.60;2.03;;;;;;;25.29;52.42;96183.94;5009717;28;20668;-59
2022/09/05 10:29:02;;;;;;;4.05;2.60;;;;;;;25.65;50.97;96175.31;5006766;28;20048;-59
2022/09/05 10:31:55;;;;;;;4.70;2.40;;;;;;;25.91;51.51;96171.44;5009336;28;20032;-58
2022/09/05 10:34:23;;;;;;;6.45;3.03;;;;;;;26.05;51.57;96176.66;4999793;28;20022;-58
2022/09/05 10:36:53;;;;;;;7.43;2.88;;;;;;;25.96;50.18;96171.56;5000239;28;20485;-58
2022/09/05 10:39:29;;;;;;;3.20;2.50;;;;;;;25.93;51.62;96163.94;5005184;28;20030;-64
2022/09/05 10:42:00;;;;;;;9.57;2.42;;;;;;;26.06;50.17;96160.22;5009519;28;20516;-63
2022/09/05 10:44:31;;;;;;;4.30;3.53;;;;;;;26.06;50.32;96157.53;5006971;28;20034;-63
2022/09/05 10:47:14;;;;;;;4.03;2.78;;;;;;;26.03;49.21;96155.28;5005771;28;20108;-62
2022/09/05 10:49:57;;;;;;;2.80;1.90;;;;;;;26.23;47.72;96146.94;5001737;28;20038;-62
2022/09/05 10:52:34;;;;;;;1.95;1.63;;;;;;;26.24;48.97;96151.28;5001993;28;20063;-63
2022/09/05 10:55:02;;;;;;;4.68;2.38;;;;;;;26.70;49.07;96145.38;4999959;28;20514;-63
2022/09/05 10:57:35;;;;;;;3.65;1.98;;;;;;;27.03;47.39;96138.59;5003999;28;20034;-63
2022/09/05 11:00:22;;;;;;;3.22;1.90;;;;;;;27.31;41.50;96137.03;5010750;28;20116;-64
2022/09/05 11:02:55;;;;;;;5.90;2.10;;;;;;;27.72;41.91;96137.88;4992758;28;20038;-63
2022/09/05 11:05:34;;;;;;;4.00;1.98;;;;;;;28.02;38.51;96134.13;4997423;28;20022;-63
2022/09/05 11:08:15;;;;;;;4.63;1.92;;;;;;;28.34;38.57;96129.28;4997326;28;20051;-63
2022/09/05 11:11:12;;;;;;;1.98;1.55;;;;;;;28.44;39.29;96122.13;5001974;28;20062;-63
2022/09/05 11:13:37;;;;;;;2.20;1.80;;;;;;;29.17;35.86;96121.34;5003779;28;20493;-63
2022/09/05 11:16:21;;;;;;;6.23;1.60;;;;;;;28.83;35.94;96120.59;5006923;28;20021;-62
2022/09/05 11:19:06;;;;;;;5.73;1.80;;;;;;;28.89;36.36;96108.75;5004103;28;21154;-64
2022/09/05 11:22:04;;;;;;;;;;;;;;;29.17;38.11;96098.84;5004595;28;20500;-65
2022/09/05 11:24:38;;;;;;;2.05;1.77;;;;;;;29.29;34.28;96102.25;4972474;28;19917;-62
2022/09/05 11:27:04;;;;;;;3.97;1.77;;;;;;;29.43;37.04;96094.59;5003117;28;20445;-63
2022/09/05 11:29:54;;;;;;;3.85;1.95;;;;;;;30.35;32.04;96098.53;5008101;28;20021;-63
2022/09/05 11:32:30;;;;;;;4.80;2.05;;;;;;;29.86;33.70;96083.94;5003878;28;20092;-63
2022/09/05 11:35:25;;;;;;;4.15;1.65;;;;;;;30.25;33.15;96084.84;5008241;28;20320;-63
2022/09/05 11:38:09;;;;;;;3.88;1.58;;;;;;;30.65;31.57;96080.03;5005494;28;20021;-63
2022/09/05 11:40:34;;;;;;;2.58;1.50;;;;;;;30.63;33.44;96077.59;5005685;28;20026;-63
2022/09/05 11:43:39;;;;;;;3.85;1.65;;;;;;;30.91;32.87;96077.47;5004791;28;20080;-63
2022/09/05 11:46:39;;;;;;;5.88;1.75;;;;;;;30.87;32.08;96069.03;4984107;28;20105;-63
2022/09/05 11:49:26;;;;;;;4.38;2.10;;;;;;;30.93;31.79;96073.41;4990093;28;20042;-54
2022/09/05 11:52:09;;;;;;;6.28;1.67;;;;;;;31.08;30.68;96075.41;5005385;28;20525;-56
2022/09/05 11:54:35;;;;;;;4.10;1.60;;;;;;;31.06;30.52;96066.69;5005328;28;20887;-55
2022/09/05 11:57:30;;;;;;;4.73;1.60;;;;;;;30.59;31.30;96079.97;5004466;28;20038;-52
2022/09/05 11:59:55;;;;;;;2.42;1.52;;;;;;;30.84;32.44;96059.53;5004938;28;20319;-53
2022/09/05 12:02:32;;;;;;;3.90;1.77;;;;;;;31.54;30.89;96068.53;5005598;28;20119;-55
2022/09/05 12:05:36;;;;;;;1.73;1.60;;;;;;;31.49;28.91;96066.63;5006656;28;20265;-57
2022/09/05 12:08:12;;;;;;;6.28;1.73;;;;;;;30.99;30.31;96075.09;5006123;28;20068;-55
2022/09/05 12:10:57;;;;;;;3.40;1.60;;;;;;;31.20;30.88;96072.50;5002626;28;20037;-56
2022/09/05 12:13:35;;;;;;;;;;;;;;;31.26;31.33;96076.88;5003951;28;20076;-57
2022/09/05 12:16:17;;;;;;;6.75;2.10;;;;;;;31.34;30.39;96072.81;5005316;28;19960;-55
2022/09/05 12:18:58;;;;;;;5.85;1.92;;;;;;;31.38;31.35;96070.38;5008331;28;20049;-50
2022/09/05 12:21:30;;;;;;;3.63;2.08;;;;;;;31.20;31.74;96069.78;5003158;28;20028;-50
2022/09/05 12:24:04;;;;;;;3.90;2.17;;;;;;;31.13;32.19;96058.28;5003604;28;20026;-55
2022/09/05 12:26:42;;;;;;;;;;;;;;;31.00;32.27;96062.31;5003523;28;20045;-54
2022/09/05 12:29:18;;;;;;;3.30;1.80;;;;;;;31.65;30.84;96064.75;5007168;28;20403;-53
2022/09/05 12:31:52;;;;;;;5.47;1.98;;;;;;;31.75;29.62;96058.53;5003762;28;20027;-49
2022/09/05 12:34:36;;;;;;;;;;;;;;;31.20;31.78;96058.06;5005314;28;20026;-50
2022/09/05 12:37:03;;;;;;;7.47;2.35;;;;;;;31.12;31.83;96051.22;5003249;28;20059;-51
2022/09/05 12:39:41;;;;;;;7.90;1.90;;;;;;;31.80;30.69;96049.59;5000308;28;20037;-50
2022/09/05 12:42:17;;;;;;;4.10;1.80;;;;;;;31.65;31.59;96045.72;5003502;28;20057;-53
2022/09/05 12:45:07;;;;;;;9.27;1.95;;;;;;;31.71;30.30;96039.19;5004116;28;20049;-50